Disclaimer

Please do not use the information listed here in-flight or in-navigation, as they are not provided to us by the airports but are provided by volunteers, so they might be outdated.

Search


Regions


Airport information page

Radio informations:
Tower (TWR) - 118.5 MHz
Approach (APP) - 121.3 MHz

Airport informations:
Latitude: 33° 22' 02.88" N
Longitude: 007° 35' 23.88" W
Elevation: 656 feet - 200 meters
Operating hours: 24 hour operations
Operating agency: Civil government, landing fees and diplomatic clearance may be required
Timezone: UTC 0
Fuel: Jet A1+, Jet A1 with icing inhibitor.

100/130 MIL Spec, low lead, aviation gasoline (BLUE)

Runway information:
17R/35L - 12205 x 148 feet< - >3720 x 45 meters
17L/35R - 12205 x 148 feet< - >3720 x 45 meters

Recent METARs:
GMMN 130400Z 04003KT 9999 SCT020 SCT100 12/12 Q1018 NOSIG
GMMN 130430Z 06004KT 9999 SCT020 SCT100 12/12 Q1018 NOSIG
GMMN 130500Z 08004KT 9999 SCT020 SCT100 11/11 Q1018 NOSIG

Airport on the map: